Time;durP1;ratioP1;P1;durP2;ratioP2;P2;SDS_P1;SDS_P2;PMS_P1;PMS_P2;Temp;Humidity;BMP_temperature;BMP_pressure;BME280_temperature;BME280_humidity;BME280_pressure;Samples;Min_cycle;Max_cycle;Signal;HPM_P1;HPM_P2
2022/05/09 00:01:05;;;;;;;4.47;2.80;;;16.10;93.10;;;;;;4759006;30;20075;-62
2022/05/09 00:03:36;;;;;;;5.20;3.20;;;16.10;93.40;;;;;;4753055;30;20075;-61
2022/05/09 00:06:03;;;;;;;5.70;3.10;;;16.10;93.40;;;;;;4754862;30;20047;-62
2022/05/09 00:08:31;;;;;;;5.60;2.80;;;16.10;93.50;;;;;;4754713;30;20051;-62
2022/05/09 00:10:59;;;;;;;6.38;3.53;;;16.10;94.10;;;;;;4754675;30;20058;-62
2022/05/09 00:13:26;;;;;;;5.75;3.13;;;16.00;94.30;;;;;;4754042;30;20055;-62
2022/05/09 00:15:53;;;;;;;3.95;2.78;;;16.00;93.70;;;;;;4755080;30;20044;-62
2022/05/09 00:18:21;;;;;;;4.32;2.60;;;16.00;93.50;;;;;;4750512;30;20048;-62
2022/05/09 00:20:48;;;;;;;5.10;2.90;;;16.00;93.40;;;;;;4753687;30;20051;-62
2022/05/09 00:23:15;;;;;;;5.70;2.80;;;15.90;93.30;;;;;;4750255;30;20059;-62
2022/05/09 00:25:42;;;;;;;4.55;2.55;;;15.90;93.60;;;;;;4736252;30;20055;-62
2022/05/09 00:28:09;;;;;;;7.38;3.30;;;15.80;93.70;;;;;;4742231;30;20091;-62
2022/05/09 00:30:37;;;;;;;4.65;2.90;;;15.80;93.90;;;;;;4752537;30;20040;-62
2022/05/09 00:33:04;;;;;;;5.15;2.92;;;15.80;93.90;;;;;;4752095;30;20131;-62
2022/05/09 00:35:31;;;;;;;8.45;3.63;;;15.80;93.90;;;;;;4756320;30;20043;-62
2022/05/09 00:37:58;;;;;;;4.85;3.03;;;15.70;94.30;;;;;;4757227;30;20048;-62
2022/05/09 00:40:25;;;;;;;7.18;3.15;;;15.60;94.60;;;;;;4757678;30;20063;-62
2022/05/09 00:42:53;;;;;;;5.72;3.05;;;15.70;94.60;;;;;;4755776;30;20044;-62
2022/05/09 00:45:26;;;;;;;5.43;2.50;;;15.70;94.80;;;;;;4753367;30;20512;-62
2022/05/09 00:47:53;;;;;;;5.65;3.10;;;15.70;94.70;;;;;;4754985;30;20048;-62
2022/05/09 00:50:28;;;;;;;5.70;3.03;;;15.60;94.70;;;;;;4755908;30;20059;-62
2022/05/09 00:53:01;;;;;;;6.32;3.20;;;15.60;94.90;;;;;;4754353;30;20510;-62
2022/05/09 00:55:40;;;;;;;5.55;3.22;;;15.60;94.80;;;;;;4751037;30;20134;-62
2022/05/09 00:58:25;;;;;;;6.18;3.17;;;15.60;95.20;;;;;;4720290;30;20530;-62
2022/05/09 01:00:54;;;;;;;6.03;3.30;;;15.70;94.70;;;;;;4757730;30;20048;-62
2022/05/09 01:03:32;;;;;;;6.10;3.05;;;15.60;94.90;;;;;;4757812;30;20052;-62
2022/05/09 01:05:59;;;;;;;5.03;2.92;;;15.50;94.60;;;;;;4757689;30;20044;-62
2022/05/09 01:08:26;;;;;;;7.15;2.85;;;15.50;95.10;;;;;;4755785;30;20059;-62
2022/05/09 01:10:55;;;;;;;6.47;3.10;;;15.50;94.90;;;;;;4751706;30;20052;-62
2022/05/09 01:13:25;;;;;;;5.25;3.10;;;15.40;95.30;;;;;;4739211;30;20507;-62
2022/05/09 01:15:54;;;;;;;6.88;2.65;;;15.40;95.40;;;;;;4755578;30;20046;-62
2022/05/09 01:18:21;;;;;;;5.38;3.15;;;15.30;95.60;;;;;;4755833;30;20043;-65
2022/05/09 01:20:48;;;;;;;5.70;2.72;;;15.30;95.50;;;;;;4757699;30;20094;-62
2022/05/09 01:23:15;;;;;;;4.15;3.00;;;15.30;95.80;;;;;;4754593;30;20515;-62
2022/05/09 01:25:43;;;;;;;6.80;3.20;;;15.30;95.70;;;;;;4756339;30;20500;-63
2022/05/09 01:28:11;;;;;;;4.28;2.63;;;15.30;95.60;;;;;;4737908;30;20101;-62
2022/05/09 01:30:50;;;;;;;4.03;2.75;;;15.20;95.40;;;;;;4750121;30;20051;-62
2022/05/09 01:33:40;;;;;;;7.90;3.15;;;15.20;95.40;;;;;;4735170;30;20055;-62
2022/05/09 01:36:09;;;;;;;5.70;2.97;;;15.30;95.80;;;;;;4738781;30;20052;-62
2022/05/09 01:38:49;;;;;;;6.30;3.45;;;15.30;95.40;;;;;;4752339;30;20448;-62
2022/05/09 01:41:16;;;;;;;6.47;3.10;;;15.20;95.90;;;;;;4738845;30;20051;-62
2022/05/09 01:43:51;;;;;;;5.20;3.05;;;15.20;95.90;;;;;;4754091;30;20052;-61
2022/05/09 01:46:22;;;;;;;7.25;2.88;;;15.20;95.80;;;;;;4755378;30;20055;-62
2022/05/09 01:51:37;;;;;;;4.18;2.88;;;15.00;96.40;;;;;;4752235;30;20496;-62
2022/05/09 01:54:04;;;;;;;8.20;3.47;;;15.00;96.70;;;;;;4753740;30;20055;-62
2022/05/09 01:56:34;;;;;;;4.38;3.38;;;15.10;96.50;;;;;;4754377;30;20055;-62
2022/05/09 01:59:03;;;;;;;7.70;2.90;;;15.10;96.80;;;;;;4725113;30;20059;-61
2022/05/09 02:01:46;;;;;;;5.28;2.88;;;15.00;96.80;;;;;;4752055;30;20062;-62
2022/05/09 02:04:15;;;;;;;5.30;2.85;;;15.00;97.00;;;;;;4753138;30;20109;-63
2022/05/09 02:06:42;;;;;;;4.70;2.78;;;15.10;96.80;;;;;;4756959;30;20055;-62
2022/05/09 02:09:11;;;;;;;4.68;2.60;;;15.10;96.80;;;;;;4754463;30;20051;-62
2022/05/09 02:11:38;;;;;;;5.60;3.35;;;14.90;97.20;;;;;;4739478;30;20043;-61
2022/05/09 02:14:06;;;;;;;3.83;2.97;;;15.00;97.40;;;;;;4750962;30;20118;-62
2022/05/09 02:16:33;;;;;;;6.68;4.00;;;14.90;97.70;;;;;;4752380;30;20056;-62
2022/05/09 02:19:00;;;;;;;4.15;2.88;;;14.90;97.80;;;;;;4756358;30;20547;-63
2022/05/09 02:21:27;;;;;;;5.90;3.05;;;15.00;97.80;;;;;;4756190;30;20491;-62
2022/05/09 02:23:55;;;;;;;5.57;3.10;;;15.00;97.40;;;;;;4752314;30;20048;-62
2022/05/09 02:26:24;;;;;;;4.65;3.38;;;15.00;97.50;;;;;;4751164;30;20144;-62
2022/05/09 02:28:51;;;;;;;4.47;2.70;;;15.10;97.60;;;;;;4754111;30;20556;-62
2022/05/09 02:31:23;;;;;;;6.57;2.80;;;14.90;98.10;;;;;;4757511;30;20058;-62
2022/05/09 02:33:50;;;;;;;7.70;2.90;;;14.90;98.20;;;;;;4749724;30;20036;-63
2022/05/09 02:36:17;;;;;;;4.53;2.85;;;15.00;98.20;;;;;;4754679;30;20098;-62
2022/05/09 02:38:44;;;;;;;5.28;3.10;;;14.90;98.00;;;;;;4735828;30;20101;-62
2022/05/09 02:41:11;;;;;;;5.32;2.72;;;14.90;97.90;;;;;;4750497;30;20721;-62
2022/05/09 02:43:39;;;;;;;4.50;3.00;;;14.80;98.40;;;;;;4755185;30;20062;-62
2022/05/09 02:46:11;;;;;;;5.68;3.08;;;14.90;98.40;;;;;;4757047;30;20043;-62
2022/05/09 02:48:39;;;;;;;6.63;2.83;;;14.90;98.40;;;;;;4756897;30;20090;-62
2022/05/09 02:51:08;;;;;;;5.32;2.47;;;14.90;98.10;;;;;;4738507;30;20052;-62
2022/05/09 02:53:35;;;;;;;5.03;2.92;;;14.90;98.40;;;;;;4757690;30;22505;-62
2022/05/09 02:56:03;;;;;;;6.53;3.13;;;14.90;98.20;;;;;;4738567;30;20048;-62
2022/05/09 02:58:31;;;;;;;4.85;2.70;;;14.70;98.80;;;;;;4740413;30;20036;-62
2022/05/09 03:00:58;;;;;;;3.88;2.40;;;14.70;99.30;;;;;;4754093;30;20066;-62
2022/05/09 03:06:13;;;;;;;4.63;2.85;;;14.70;99.30;;;;;;4753731;30;20512;-62
2022/05/09 03:08:40;;;;;;;4.90;2.63;;;14.80;99.10;;;;;;4755950;30;20110;-62
2022/05/09 03:11:07;;;;;;;7.65;3.03;;;14.70;99.20;;;;;;4753847;30;20051;-62
2022/05/09 03:13:34;;;;;;;5.95;2.92;;;14.80;98.60;;;;;;4755087;30;20049;-62
2022/05/09 03:16:02;;;;;;;4.88;3.20;;;14.70;99.10;;;;;;4750139;30;20051;-62
2022/05/09 03:18:29;;;;;;;5.63;2.80;;;14.70;99.20;;;;;;4728072;30;20062;-62
2022/05/09 03:20:56;;;;;;;6.05;3.20;;;14.70;99.30;;;;;;4750576;30;20079;-62
2022/05/09 03:23:24;;;;;;;3.72;2.47;;;14.80;99.00;;;;;;4754404;30;20075;-62
2022/05/09 03:25:51;;;;;;;4.38;2.65;;;14.90;98.60;;;;;;4736488;30;20060;-63
2022/05/09 03:28:24;;;;;;;5.13;3.40;;;15.00;98.30;;;;;;4749619;30;20113;-63
2022/05/09 03:30:56;;;;;;;7.30;3.30;;;15.00;98.30;;;;;;4753584;30;20046;-62
2022/05/09 03:33:27;;;;;;;5.15;2.95;;;15.00;98.30;;;;;;4738001;30;20706;-62
2022/05/09 03:35:58;;;;;;;6.68;3.00;;;15.10;98.10;;;;;;4754595;30;20155;-62
2022/05/09 03:38:26;;;;;;;4.55;3.20;;;15.00;98.30;;;;;;4750865;30;20685;-63
2022/05/09 03:40:53;;;;;;;6.38;2.97;;;14.80;98.50;;;;;;4751616;30;20052;-62
2022/05/09 03:43:20;;;;;;;5.30;2.95;;;14.90;98.80;;;;;;4757643;30;20044;-62
2022/05/09 03:45:50;;;;;;;5.95;3.53;;;14.80;99.20;;;;;;4758850;30;20052;-62
2022/05/09 03:48:17;;;;;;;5.38;2.88;;;14.80;99.30;;;;;;4757685;30;20504;-62
2022/05/09 03:50:45;;;;;;;6.30;3.35;;;14.90;99.40;;;;;;4755266;30;20480;-62
2022/05/09 03:53:12;;;;;;;6.18;2.67;;;14.90;98.90;;;;;;4739734;30;20453;-62
2022/05/09 03:55:39;;;;;;;8.30;3.65;;;14.90;98.90;;;;;;4753677;30;20056;-62
2022/05/09 03:58:06;;;;;;;5.07;3.20;;;14.90;98.80;;;;;;4753748;30;20036;-62
2022/05/09 04:00:35;;;;;;;5.45;2.70;;;14.90;99.00;;;;;;4753215;30;20055;-62
2022/05/09 04:03:03;;;;;;;4.38;2.88;;;15.00;98.70;;;;;;4759449;30;20051;-62
2022/05/09 04:05:32;;;;;;;4.40;2.80;;;15.00;98.70;;;;;;4756926;30;20521;-62
2022/05/09 04:08:01;;;;;;;5.18;3.13;;;15.00;99.00;;;;;;4751743;30;20051;-62
2022/05/09 04:10:33;;;;;;;6.30;3.08;;;15.10;98.50;;;;;;4755003;30;20031;-63
2022/05/09 04:13:01;;;;;;;6.07;2.85;;;15.10;98.70;;;;;;4755010;30;20053;-62
2022/05/09 04:18:17;;;;;;;6.22;3.00;;;15.10;98.70;;;;;;4755187;30;20051;-62
2022/05/09 04:20:46;;;;;;;4.97;2.80;;;15.20;98.70;;;;;;4740991;30;20526;-63
2022/05/09 04:23:14;;;;;;;5.97;3.38;;;15.30;97.90;;;;;;4755434;30;20113;-62
2022/05/09 04:25:42;;;;;;;6.53;3.08;;;15.40;97.80;;;;;;4753805;30;20127;-62
2022/05/09 04:28:15;;;;;;;5.47;3.17;;;15.50;97.30;;;;;;4753613;30;20059;-63
2022/05/09 04:30:42;;;;;;;5.30;3.03;;;15.50;97.10;;;;;;4754296;30;20396;-62
2022/05/09 04:33:10;;;;;;;4.30;2.90;;;15.60;96.90;;;;;;4738556;30;20771;-62
2022/05/09 04:35:39;;;;;;;4.03;2.70;;;15.60;96.90;;;;;;4754409;30;20048;-62
2022/05/09 04:38:07;;;;;;;6.60;2.70;;;15.60;96.40;;;;;;4753677;30;20493;-62
2022/05/09 04:40:36;;;;;;;3.92;2.63;;;15.60;96.80;;;;;;4754608;30;20052;-62
2022/05/09 04:43:04;;;;;;;4.70;2.65;;;15.70;97.10;;;;;;4756935;30;20257;-62
2022/05/09 04:45:32;;;;;;;4.90;3.20;;;15.70;96.60;;;;;;4755243;30;20648;-62
2022/05/09 04:48:00;;;;;;;5.72;2.88;;;15.70;96.60;;;;;;4757386;30;20452;-62
2022/05/09 04:50:28;;;;;;;5.90;3.17;;;15.70;96.80;;;;;;4756454;30;20051;-62
2022/05/09 04:52:55;;;;;;;5.22;2.88;;;15.80;96.60;;;;;;4740200;30;20058;-62
2022/05/09 04:55:25;;;;;;;3.95;2.38;;;15.70;96.60;;;;;;4750890;30;21817;-62
2022/05/09 04:57:52;;;;;;;4.75;2.78;;;15.80;95.90;;;;;;4753066;30;20051;-62
2022/05/09 05:00:24;;;;;;;6.18;3.00;;;15.90;96.10;;;;;;4734257;30;20067;-62
2022/05/09 05:02:53;;;;;;;;;;;15.90;95.90;;;;;;4723640;30;20043;-62
2022/05/09 05:05:21;;;;;;;5.07;2.80;;;16.10;95.80;;;;;;4721809;30;20031;-62
2022/05/09 05:07:48;;;;;;;5.95;3.20;;;16.10;95.60;;;;;;4723950;30;20055;-62
2022/05/09 05:10:16;;;;;;;3.95;2.55;;;16.20;95.30;;;;;;4718954;30;20051;-62
2022/05/09 05:12:43;;;;;;;7.38;3.33;;;16.30;94.90;;;;;;4700960;30;21131;-62
2022/05/09 05:15:12;;;;;;;4.68;2.65;;;16.50;94.90;;;;;;4718690;30;20488;-62
2022/05/09 05:17:39;;;;;;;6.57;2.80;;;16.50;94.10;;;;;;4710945;30;20060;-62
2022/05/09 05:20:12;;;;;;;5.47;2.65;;;16.70;94.10;;;;;;4721652;30;20055;-62
2022/05/09 05:22:41;;;;;;;3.90;2.50;;;16.80;93.50;;;;;;4724335;30;21268;-62
2022/05/09 05:25:10;;;;;;;4.40;2.65;;;17.00;93.20;;;;;;4722296;30;20051;-62
2022/05/09 05:27:38;;;;;;;7.00;2.50;;;17.10;92.80;;;;;;4722538;30;22567;-62
2022/05/09 05:30:06;;;;;;;6.40;3.15;;;17.20;92.50;;;;;;4722305;30;20087;-62
2022/05/09 05:32:35;;;;;;;4.80;2.80;;;17.30;92.60;;;;;;4725151;30;20051;-62
2022/05/09 05:35:06;;;;;;;4.47;2.10;;;17.30;91.80;;;;;;4720945;30;20861;-62
2022/05/09 05:37:34;;;;;;;5.40;2.63;;;17.30;91.70;;;;;;4719896;30;22524;-62
2022/05/09 05:40:01;;;;;;;5.90;2.88;;;17.20;91.50;;;;;;4720064;30;20724;-62
2022/05/09 05:42:29;;;;;;;4.85;2.33;;;17.20;91.70;;;;;;4721848;30;20696;-62
2022/05/09 05:44:56;;;;;;;5.00;2.60;;;17.20;92.30;;;;;;4707468;30;22494;-62
2022/05/09 05:47:24;;;;;;;5.10;2.70;;;17.30;91.80;;;;;;4719539;30;22734;-62
2022/05/09 05:49:51;;;;;;;4.60;2.60;;;17.30;92.00;;;;;;4723386;30;20138;-62
2022/05/09 05:52:20;;;;;;;5.45;2.80;;;17.30;91.80;;;;;;4720919;30;20797;-63
2022/05/09 05:54:47;;;;;;;3.65;2.33;;;17.30;92.30;;;;;;4707369;30;20058;-62
2022/05/09 05:57:22;;;;;;;5.03;2.92;;;17.30;92.00;;;;;;4693253;30;20055;-62
2022/05/09 06:00:03;;;;;;;6.30;3.30;;;17.30;91.80;;;;;;4718197;30;20066;-63
2022/05/09 06:02:31;;;;;;;4.00;2.78;;;17.40;92.30;;;;;;4722239;30;20063;-62
2022/05/09 06:04:58;;;;;;;4.63;3.17;;;17.40;91.90;;;;;;4724632;30;20055;-62
2022/05/09 06:07:25;;;;;;;5.45;3.22;;;17.50;92.00;;;;;;4721278;30;20063;-63
2022/05/09 06:09:53;;;;;;;6.55;3.25;;;17.50;91.90;;;;;;4707002;30;20052;-62
2022/05/09 06:12:22;;;;;;;4.97;3.10;;;17.50;91.50;;;;;;4722463;29;20068;-62
2022/05/09 06:15:24;;;;;;;4.80;3.10;;;17.50;91.20;;;;;;4719785;30;20055;-62
2022/05/09 06:17:37;;;;;;;6.20;3.00;;;17.60;91.80;;;;;;4721116;30;20059;-62
2022/05/09 06:20:07;;;;;;;4.63;3.20;;;17.70;91.60;;;;;;4717163;30;22555;-63
2022/05/09 06:22:38;;;;;;;4.50;3.20;;;17.90;91.60;;;;;;4719753;30;20071;-62
2022/05/09 06:25:10;;;;;;;5.88;3.70;;;18.10;90.70;;;;;;4705118;30;20075;-62
2022/05/09 06:27:38;;;;;;;7.18;3.45;;;18.20;91.00;;;;;;4719579;30;22936;-63
2022/05/09 06:30:08;;;;;;;7.53;2.95;;;18.20;89.80;;;;;;4718248;30;20067;-63
2022/05/09 06:32:36;;;;;;;5.43;3.28;;;18.30;89.80;;;;;;4717577;30;20056;-62
2022/05/09 06:35:06;;;;;;;7.55;3.13;;;18.30;88.60;;;;;;4722004;30;20531;-62
2022/05/09 06:37:35;;;;;;;6.30;2.70;;;18.70;88.60;;;;;;4722039;30;20127;-62
2022/05/09 06:40:04;;;;;;;6.57;3.00;;;19.00;85.40;;;;;;4726611;29;20051;-63
2022/05/09 06:42:32;;;;;;;7.80;3.10;;;18.90;86.20;;;;;;4719973;30;20047;-62
2022/05/09 06:44:59;;;;;;;5.47;3.30;;;18.90;86.30;;;;;;4709655;30;20056;-63
2022/05/09 06:47:27;;;;;;;5.53;3.00;;;18.90;85.60;;;;;;4718370;30;22494;-63
2022/05/09 06:50:01;;;;;;;6.70;3.00;;;18.90;85.60;;;;;;4717722;30;20058;-63
2022/05/09 06:52:28;;;;;;;6.88;3.25;;;19.00;84.60;;;;;;4720082;30;20052;-62
2022/05/09 06:54:55;;;;;;;7.68;3.20;;;19.10;83.90;;;;;;4714845;30;20062;-63
2022/05/09 06:57:22;;;;;;;12.20;6.07;;;19.10;83.80;;;;;;4720824;30;20051;-63
2022/05/09 06:59:49;;;;;;;9.88;5.18;;;19.30;84.20;;;;;;4717662;30;20167;-63
2022/05/09 07:02:16;;;;;;;7.25;3.78;;;19.40;83.90;;;;;;4716345;30;22764;-63
2022/05/09 07:04:43;;;;;;;8.57;3.10;;;19.40;81.60;;;;;;4696177;30;21106;-63
2022/05/09 07:07:10;;;;;;;8.32;3.20;;;19.50;82.70;;;;;;4719529;30;20050;-63
2022/05/09 07:09:38;;;;;;;7.25;3.10;;;19.70;85.00;;;;;;4723209;30;20059;-64
2022/05/09 07:12:06;;;;;;;5.35;3.30;;;19.70;86.60;;;;;;4710786;30;20051;-65
2022/05/09 07:14:33;;;;;;;5.47;2.90;;;19.70;83.50;;;;;;4714935;29;20058;-63
2022/05/09 07:17:01;;;;;;;7.72;3.40;;;19.80;83.30;;;;;;4714005;30;22505;-63
2022/05/09 07:19:28;;;;;;;6.63;3.30;;;19.90;83.10;;;;;;4703815;30;20179;-63
2022/05/09 07:21:55;;;;;;;9.63;3.85;;;19.90;80.60;;;;;;4723220;30;20070;-63
2022/05/09 07:24:22;;;;;;;5.72;3.17;;;20.10;82.80;;;;;;4709571;30;20055;-63
2022/05/09 07:26:49;;;;;;;8.93;3.05;;;20.10;79.50;;;;;;4725075;30;20123;-63
2022/05/09 07:29:16;;;;;;;5.55;2.97;;;20.10;79.90;;;;;;4723911;30;20056;-63
2022/05/09 07:31:43;;;;;;;5.50;3.17;;;20.10;80.10;;;;;;4721614;30;20051;-64
2022/05/09 07:34:10;;;;;;;5.57;2.80;;;20.20;81.70;;;;;;4725618;30;20138;-63
2022/05/09 07:36:37;;;;;;;5.55;3.75;;;20.30;82.50;;;;;;4715709;30;20389;-64
2022/05/09 07:39:06;;;;;;;7.65;4.00;;;20.30;81.20;;;;;;4725472;30;20047;-63
2022/05/09 07:41:34;;;;;;;9.02;3.58;;;20.40;82.60;;;;;;4715332;30;20085;-63
2022/05/09 07:44:02;;;;;;;7.40;4.13;;;20.60;82.40;;;;;;4722485;30;20059;-63
2022/05/09 07:46:29;;;;;;;4.60;3.08;;;20.70;83.40;;;;;;4724433;30;20056;-63
2022/05/09 07:49:10;;;;;;;6.25;3.45;;;20.90;81.10;;;;;;4724848;30;20091;-63
2022/05/09 07:51:37;;;;;;;4.90;3.20;;;21.10;80.90;;;;;;4723107;30;20056;-64
2022/05/09 07:54:05;;;;;;;8.45;3.72;;;21.00;80.60;;;;;;4722797;30;20809;-63
2022/05/09 07:56:39;;;;;;;8.70;3.17;;;20.80;78.30;;;;;;4724765;30;20122;-63
2022/05/09 07:59:07;;;;;;;6.90;3.78;;;20.80;79.80;;;;;;4721279;30;20067;-64
2022/05/09 08:01:34;;;;;;;7.97;3.80;;;20.70;77.50;;;;;;4721945;30;20066;-63
2022/05/09 08:04:05;;;;;;;5.95;3.38;;;20.70;77.70;;;;;;4706476;30;20063;-63
2022/05/09 08:06:33;;;;;;;6.90;3.85;;;20.90;77.60;;;;;;4727088;30;20063;-64
2022/05/09 08:09:01;;;;;;;8.25;3.40;;;21.40;76.30;;;;;;4723157;30;22393;-64
2022/05/09 08:11:29;;;;;;;6.47;3.75;;;21.60;75.60;;;;;;4722327;30;20147;-63
2022/05/09 08:13:56;;;;;;;5.78;3.42;;;21.50;74.00;;;;;;4725305;29;20078;-64
2022/05/09 08:16:26;;;;;;;7.57;3.50;;;21.30;75.40;;;;;;4724264;30;20066;-63
2022/05/09 08:18:54;;;;;;;5.22;2.95;;;21.70;76.60;;;;;;4721350;30;20817;-64
2022/05/09 08:21:21;;;;;;;4.78;3.08;;;22.00;75.50;;;;;;4722409;30;20087;-64
2022/05/09 08:23:50;;;;;;;9.90;4.18;;;22.20;72.80;;;;;;4723909;30;22438;-65
2022/05/09 08:26:21;;;;;;;6.47;3.65;;;22.10;72.20;;;;;;4705506;30;20055;-63
2022/05/09 08:28:50;;;;;;;7.43;4.20;;;22.10;73.30;;;;;;4720135;30;20112;-63
2022/05/09 08:31:18;;;;;;;6.65;3.78;;;22.30;70.90;;;;;;4703365;30;20051;-66
2022/05/09 08:33:47;;;;;;;10.82;4.32;;;22.30;71.70;;;;;;4719381;30;20209;-66
2022/05/09 08:37:01;;;;;;;6.60;4.25;;;22.40;71.70;;;;;;4726873;30;20059;-64
2022/05/09 08:39:03;;;;;;;7.15;4.25;;;22.40;71.80;;;;;;4705763;30;20059;-65
2022/05/09 08:41:41;;;;;;;7.40;4.25;;;22.50;72.90;;;;;;4723888;30;20812;-64
2022/05/09 08:44:38;;;;;;;7.47;3.75;;;22.50;68.50;;;;;;4718016;30;20055;-64
2022/05/09 08:47:17;;;;;;;7.65;4.22;;;22.60;68.20;;;;;;4698427;30;20097;-64
2022/05/09 08:50:07;;;;;;;5.55;3.80;;;22.70;67.20;;;;;;4705880;30;22512;-64
2022/05/09 08:52:48;;;;;;;9.40;4.40;;;22.80;65.40;;;;;;4721903;30;20059;-64
2022/05/09 08:55:45;;;;;;;6.97;4.47;;;23.00;69.70;;;;;;4714766;30;20063;-64
2022/05/09 08:58:19;;;;;;;11.00;4.25;;;23.00;67.30;;;;;;4705534;30;20079;-64
2022/05/09 09:00:52;;;;;;;4.72;3.45;;;23.10;70.90;;;;;;4723625;30;20184;-64
2022/05/09 09:03:32;;;;;;;5.82;3.80;;;23.20;69.40;;;;;;4705823;30;20860;-64
2022/05/09 09:06:14;;;;;;;6.18;4.53;;;23.20;67.50;;;;;;4699317;30;20056;-65
2022/05/09 09:08:53;;;;;;;11.27;4.10;;;23.10;68.20;;;;;;4701057;30;20876;-66
2022/05/09 09:11:34;;;;;;;6.43;4.40;;;23.40;65.70;;;;;;4703406;30;20658;-64
2022/05/09 09:14:15;;;;;;;7.78;3.75;;;23.60;71.40;;;;;;4704198;30;20801;-64
2022/05/09 09:16:59;;;;;;;7.78;4.75;;;23.10;68.20;;;;;;4715820;30;20055;-64
2022/05/09 09:19:29;;;;;;;7.32;3.90;;;22.70;67.30;;;;;;4728584;30;20055;-64
2022/05/09 09:22:05;;;;;;;5.88;3.95;;;22.50;68.10;;;;;;4722620;30;20079;-64
2022/05/09 09:24:38;;;;;;;8.40;4.07;;;22.30;66.10;;;;;;4713184;30;20094;-64
2022/05/09 09:27:28;;;;;;;9.15;4.47;;;22.30;67.90;;;;;;4717961;30;20060;-64
2022/05/09 09:30:02;;;;;;;10.70;3.95;;;22.30;66.50;;;;;;4719697;30;20108;-64
2022/05/09 09:32:31;;;;;;;6.63;4.20;;;22.40;68.10;;;;;;4720301;30;20051;-64
2022/05/09 09:35:18;;;;;;;6.93;4.13;;;22.30;68.30;;;;;;4725116;30;20055;-63
2022/05/09 09:38:06;;;;;;;7.40;3.70;;;22.20;69.60;;;;;;4719572;30;20956;-66
2022/05/09 09:40:33;;;;;;;4.95;3.72;;;22.20;68.50;;;;;;4716219;30;20051;-64
2022/05/09 09:43:00;;;;;;;6.95;4.18;;;22.00;66.20;;;;;;4719184;30;20419;-64
2022/05/09 09:45:35;;;;;;;8.32;4.10;;;21.90;67.20;;;;;;4717999;30;20063;-66
2022/05/09 09:48:23;;;;;;;6.25;4.03;;;21.80;69.20;;;;;;4721747;30;20047;-64
2022/05/09 09:51:10;;;;;;;6.75;4.63;;;21.80;70.30;;;;;;4725868;30;20058;-65
2022/05/09 09:54:05;;;;;;;10.70;4.45;;;21.80;69.90;;;;;;4722596;30;20062;-67
2022/05/09 09:56:32;;;;;;;5.78;3.60;;;21.80;70.10;;;;;;4721954;30;20063;-65
2022/05/09 09:59:15;;;;;;;7.15;4.13;;;21.80;71.80;;;;;;4721042;30;20056;-64
2022/05/09 10:01:43;;;;;;;8.57;4.40;;;21.80;70.10;;;;;;4722958;30;20189;-66
2022/05/09 10:04:28;;;;;;;10.30;4.82;;;21.80;68.50;;;;;;4720905;30;20058;-66
2022/05/09 10:07:12;;;;;;;5.85;3.85;;;21.70;67.70;;;;;;4725917;30;20047;-66
2022/05/09 10:09:59;;;;;;;5.20;3.65;;;21.70;68.10;;;;;;4725732;30;20102;-64
2022/05/09 10:12:28;;;;;;;7.38;4.43;;;21.80;68.50;;;;;;4681655;30;20068;-64
2022/05/09 10:14:56;;;;;;;10.68;4.38;;;21.90;67.50;;;;;;4724392;30;20055;-65
2022/05/09 10:17:26;;;;;;;5.75;4.03;;;22.00;68.00;;;;;;4723183;30;20066;-64
2022/05/09 10:19:55;;;;;;;8.00;3.80;;;22.00;69.10;;;;;;4720853;30;20066;-64
2022/05/09 10:25:22;;;;;;;6.03;2.53;;;22.20;60.60;;;;;;4718313;30;20060;-64
2022/05/09 10:28:07;;;;;;;4.50;2.78;;;22.60;58.30;;;;;;4706711;30;20055;-64
2022/05/09 10:30:37;;;;;;;5.45;2.50;;;22.90;60.60;;;;;;4722797;30;20067;-64
2022/05/09 10:33:20;;;;;;;4.57;3.17;;;23.10;57.20;;;;;;4720801;30;20727;-65
2022/05/09 10:35:53;;;;;;;;;;;23.20;58.30;;;;;;4722518;30;20052;-64
2022/05/09 10:38:37;;;;;;;4.68;3.33;;;23.00;58.60;;;;;;4721524;30;19934;-64
2022/05/09 10:41:22;;;;;;;4.57;3.92;;;23.00;59.50;;;;;;4704903;30;21062;-64
2022/05/09 10:44:01;;;;;;;6.53;4.18;;;22.80;59.50;;;;;;4699214;30;20060;-64
2022/05/09 10:46:49;;;;;;;6.97;3.50;;;22.70;59.80;;;;;;4719137;30;20048;-64
2022/05/09 10:49:26;;;;;;;6.07;4.13;;;22.70;62.30;;;;;;4716733;30;20052;-64
2022/05/09 10:52:16;;;;;;;7.80;3.92;;;22.50;64.50;;;;;;4719922;30;20827;-64
2022/05/09 10:54:53;;;;;;;4.88;3.28;;;22.60;64.70;;;;;;4669128;30;20106;-64
2022/05/09 10:57:40;;;;;;;6.38;3.92;;;22.70;66.40;;;;;;4720145;30;20053;-64
2022/05/09 11:00:23;;;;;;;5.82;3.92;;;22.90;62.60;;;;;;4719926;30;20727;-64
2022/05/09 11:03:26;;;;;;;6.45;3.85;;;23.00;63.60;;;;;;4723735;30;20129;-64
2022/05/09 11:06:24;;;;;;;6.63;3.50;;;22.70;62.50;;;;;;4712326;30;20056;-64
2022/05/09 11:09:19;;;;;;;5.55;2.65;;;22.80;62.00;;;;;;4662649;30;21352;-63
2022/05/09 11:12:16;;;;;;;3.80;2.85;;;22.80;59.30;;;;;;4699682;30;21242;-65
2022/05/09 11:15:22;;;;;;;5.35;3.03;;;22.70;63.60;;;;;;4717549;30;22410;-65
2022/05/09 11:18:11;;;;;;;4.28;2.70;;;22.60;62.50;;;;;;4659003;30;20523;-64
2022/05/09 11:20:59;;;;;;;4.28;2.70;;;22.70;61.70;;;;;;4715711;30;20792;-64
2022/05/09 11:23:48;;;;;;;3.55;3.00;;;22.60;60.30;;;;;;4718529;30;20634;-64
2022/05/09 11:26:37;;;;;;;6.03;3.28;;;22.10;61.90;;;;;;4716396;30;20144;-63
2022/05/09 11:29:27;;;;;;;5.45;2.83;;;21.70;63.40;;;;;;4705251;30;20051;-63
2022/05/09 11:32:17;;;;;;;4.28;3.17;;;21.30;64.80;;;;;;4724464;30;20047;-64
2022/05/09 11:35:12;;;;;;;7.40;3.20;;;21.00;67.10;;;;;;4722228;30;20059;-63
2022/05/09 11:37:55;;;;;;;11.45;4.75;;;20.50;71.40;;;;;;4720776;30;20180;-63
2022/05/09 11:40:31;;;;;;;5.50;3.30;;;20.20;70.30;;;;;;4706397;30;22566;-63
2022/05/09 11:43:38;;;;;;;6.18;3.22;;;20.20;70.30;;;;;;4725703;30;20194;-63
2022/05/09 11:46:42;;;;;;;4.95;2.90;;;20.20;71.10;;;;;;4711233;30;20067;-63
2022/05/09 11:49:48;;;;;;;6.57;2.80;;;19.80;74.60;;;;;;4700493;30;22507;-63
2022/05/09 11:52:34;;;;;;;8.70;3.05;;;19.40;81.50;;;;;;4691988;30;20064;-63
2022/05/09 11:55:08;;;;;;;4.80;3.13;;;19.30;86.50;;;;;;4721936;30;20060;-62
2022/05/09 11:57:39;;;;;;;6.78;3.30;;;19.20;89.30;;;;;;4698216;30;22608;-62
2022/05/09 12:00:31;;;;;;;5.57;3.10;;;19.30;90.70;;;;;;4720970;30;20085;-63
2022/05/09 12:03:09;;;;;;;6.10;3.72;;;19.20;92.40;;;;;;4728386;30;20070;-62
2022/05/09 12:05:38;;;;;;;7.80;3.85;;;19.10;94.30;;;;;;4703667;30;20059;-62
2022/05/09 12:08:19;;;;;;;7.63;3.58;;;19.10;94.80;;;;;;4713348;30;20056;-62
2022/05/09 12:10:49;;;;;;;5.07;3.10;;;19.00;93.60;;;;;;4723211;30;21489;-62
2022/05/09 12:13:20;;;;;;;6.53;3.75;;;19.00;94.30;;;;;;4727641;30;20994;-62
2022/05/09 12:15:50;;;;;;;5.50;3.10;;;19.10;95.80;;;;;;4723825;30;20178;-63
2022/05/09 12:18:20;;;;;;;6.43;3.22;;;19.00;95.70;;;;;;4721701;30;20168;-63
2022/05/09 12:20:48;;;;;;;4.78;3.15;;;18.90;93.80;;;;;;4726116;30;20062;-62
2022/05/09 12:23:39;;;;;;;5.03;3.20;;;18.90;94.10;;;;;;4723643;30;20192;-63
2022/05/09 12:26:08;;;;;;;5.15;3.33;;;19.00;95.60;;;;;;4693343;30;20172;-62
2022/05/09 12:28:43;;;;;;;4.85;3.25;;;19.00;96.20;;;;;;4715865;30;20123;-63
2022/05/09 12:31:26;;;;;;;6.05;3.45;;;19.00;96.40;;;;;;4720250;30;20735;-62
2022/05/09 12:33:54;;;;;;;6.50;3.60;;;18.90;96.30;;;;;;4709820;30;20055;-62
2022/05/09 12:36:26;;;;;;;5.70;4.50;;;18.90;97.50;;;;;;4726875;30;20048;-63
2022/05/09 12:38:55;;;;;;;8.00;3.80;;;18.90;99.00;;;;;;4725044;30;20103;-63
2022/05/09 12:41:38;;;;;;;5.50;3.92;;;18.90;97.40;;;;;;4723149;30;20362;-63
2022/05/09 12:44:26;;;;;;;6.53;3.88;;;19.00;96.40;;;;;;4706821;30;20055;-62
2022/05/09 12:47:01;;;;;;;8.05;3.65;;;19.00;95.60;;;;;;4723141;30;20063;-63
2022/05/09 12:49:36;;;;;;;5.80;3.72;;;19.00;94.40;;;;;;4724946;30;21068;-63
2022/05/09 12:52:05;;;;;;;8.18;3.17;;;19.10;95.00;;;;;;4723644;30;20074;-63
2022/05/09 12:54:35;;;;;;;6.47;3.65;;;19.30;95.30;;;;;;4726935;30;22596;-63
2022/05/09 12:57:04;;;;;;;6.43;3.45;;;19.40;95.50;;;;;;4722177;30;20047;-64
2022/05/09 12:59:51;;;;;;;7.97;4.40;;;19.60;97.10;;;;;;4704275;30;22528;-63
2022/05/09 13:02:24;;;;;;;6.20;3.92;;;19.90;98.30;;;;;;4702690;30;20151;-64
2022/05/09 13:05:13;;;;;;;5.38;3.90;;;20.10;96.70;;;;;;4724937;30;20182;-64
2022/05/09 13:08:14;;;;;;;5.60;3.33;;;20.30;95.40;;;;;;4727100;30;20090;-64
2022/05/09 13:10:48;;;;;;;6.30;3.53;;;20.30;89.20;;;;;;4686317;30;20063;-64
2022/05/09 13:13:35;;;;;;;4.90;3.30;;;20.40;93.70;;;;;;4711944;30;20066;-64
2022/05/09 13:16:02;;;;;;;4.07;2.40;;;20.70;92.10;;;;;;4678799;30;20052;-65
2022/05/09 13:18:31;;;;;;;3.72;2.38;;;20.60;90.10;;;;;;4725022;30;20130;-63
2022/05/09 13:21:05;;;;;;;6.95;3.30;;;20.80;90.50;;;;;;4722481;30;20058;-64
2022/05/09 13:23:37;;;;;;;4.47;3.00;;;20.80;92.80;;;;;;4722460;30;20070;-64
2022/05/09 13:26:08;;;;;;;7.22;4.25;;;21.00;91.00;;;;;;4707839;30;20063;-65
2022/05/09 13:28:46;;;;;;;6.90;3.40;;;21.20;91.60;;;;;;4721519;30;20059;-64